createdAt,value
2023-03-04T00:00:10.689Z,10.27
2023-03-04T00:02:56.060Z,10.27
2023-03-04T00:05:31.032Z,10.35
2023-03-04T00:08:04.793Z,9.75
2023-03-04T00:10:43.654Z,10.95
2023-03-04T00:13:10.947Z,11.02
2023-03-04T00:15:51.179Z,10.25
2023-03-04T00:18:24.594Z,11.18
2023-03-04T00:20:55.052Z,10.38
2023-03-04T00:23:21.883Z,10.93
2023-03-04T00:25:53.664Z,11.38
2023-03-04T00:28:26.350Z,10.63
2023-03-04T00:30:52.778Z,10.70
2023-03-04T00:33:23.662Z,11.20
2023-03-04T00:35:56.299Z,10.68
2023-03-04T00:38:31.670Z,11.45
2023-03-04T00:41:11.933Z,11.05
2023-03-04T00:43:43.524Z,11.20
2023-03-04T00:46:18.437Z,11.50
2023-03-04T00:48:57.189Z,11.80
2023-03-04T00:51:24.577Z,12.32
2023-03-04T00:54:01.770Z,11.00
2023-03-04T00:56:44.542Z,10.75
2023-03-04T00:59:14.959Z,11.38
2023-03-04T01:01:56.819Z,12.25
2023-03-04T01:04:35.626Z,11.93
2023-03-04T01:07:10.455Z,12.57
2023-03-04T01:09:37.804Z,11.68
2023-03-04T01:12:12.039Z,11.30
2023-03-04T01:14:50.163Z,11.30
2023-03-04T01:17:25.796Z,11.20
2023-03-04T01:20:00.418Z,12.35
2023-03-04T01:22:35.233Z,11.98
2023-03-04T01:25:09.763Z,12.82
2023-03-04T01:27:46.557Z,12.98
2023-03-04T01:30:16.108Z,12.60
2023-03-04T01:32:53.043Z,11.88
2023-03-04T01:35:28.803Z,12.73
2023-03-04T01:38:11.502Z,12.80
2023-03-04T01:40:58.631Z,11.82
2023-03-04T01:46:23.585Z,12.10
2023-03-04T01:51:34.403Z,12.73
2023-03-04T01:54:02.137Z,12.27
2023-03-04T01:56:29.944Z,12.95
2023-03-04T01:59:21.874Z,13.57
2023-03-04T02:01:55.618Z,13.77
2023-03-04T02:04:23.934Z,13.20
2023-03-04T02:06:51.457Z,13.23
2023-03-04T02:09:18.521Z,13.60
2023-03-04T02:11:45.903Z,13.85
2023-03-04T02:14:21.852Z,13.13
2023-03-04T02:16:58.930Z,13.30
2023-03-04T02:19:31.738Z,14.10
2023-03-04T02:22:00.701Z,13.35
2023-03-04T02:27:35.959Z,12.63
2023-03-04T02:32:54.915Z,14.52
2023-03-04T02:35:25.226Z,13.60
2023-03-04T02:37:51.752Z,13.43
2023-03-04T02:43:26.280Z,12.95
2023-03-04T02:48:51.030Z,13.63
2023-03-04T02:51:34.706Z,14.07
2023-03-04T02:54:13.013Z,13.32
2023-03-04T02:57:03.731Z,12.82
2023-03-04T02:59:36.854Z,13.93
2023-03-04T03:02:17.039Z,13.75
2023-03-04T03:05:01.404Z,13.93
2023-03-04T03:07:35.149Z,15.23
2023-03-04T03:10:11.081Z,14.25
2023-03-04T03:12:37.835Z,14.25
2023-03-04T03:15:10.302Z,14.60
2023-03-04T03:17:41.787Z,14.05
2023-03-04T03:20:18.489Z,13.73
2023-03-04T03:25:32.147Z,12.65
2023-03-04T03:28:01.180Z,12.45
2023-03-04T03:30:33.883Z,12.68
2023-03-04T03:33:00.398Z,13.68
2023-03-04T03:35:26.938Z,13.55
2023-03-04T03:37:53.502Z,13.77
2023-03-04T03:40:20.003Z,13.10
2023-03-04T03:42:54.776Z,13.40
2023-03-04T03:45:21.492Z,13.43
2023-03-04T03:47:47.976Z,12.50
2023-03-04T03:50:14.434Z,14.13
2023-03-04T03:52:41.313Z,14.25
2023-03-04T03:55:08.035Z,13.30
2023-03-04T03:57:34.528Z,13.43
2023-03-04T04:00:01.303Z,13.75
2023-03-04T04:02:27.933Z,13.77
2023-03-04T04:04:54.457Z,13.57
2023-03-04T04:07:20.901Z,13.20
2023-03-04T04:09:47.405Z,13.95
2023-03-04T04:12:19.558Z,13.38
2023-03-04T04:14:46.054Z,13.82
2023-03-04T04:17:12.658Z,13.27
2023-03-04T04:19:46.538Z,13.27
2023-03-04T04:22:18.081Z,12.73
2023-03-04T04:24:44.864Z,12.70
2023-03-04T04:27:11.410Z,13.70
2023-03-04T04:29:37.858Z,12.75
2023-03-04T04:32:04.690Z,13.15
2023-03-04T04:34:32.482Z,14.02
2023-03-04T04:37:09.044Z,14.20
2023-03-04T04:39:37.051Z,13.70
2023-03-04T04:42:03.632Z,13.32
2023-03-04T04:44:30.227Z,13.52
2023-03-04T04:46:56.729Z,15.18
2023-03-04T04:49:23.854Z,13.88
2023-03-04T04:51:58.504Z,12.85
2023-03-04T04:56:56.198Z,14.63
2023-03-04T04:59:22.668Z,14.90
2023-03-04T05:01:55.784Z,14.73
2023-03-04T05:04:22.242Z,14.88
2023-03-04T05:06:50.118Z,14.55
2023-03-04T05:09:16.563Z,15.63
2023-03-04T05:11:47.096Z,15.43
2023-03-04T05:14:14.129Z,14.48
2023-03-04T05:16:40.612Z,14.50
2023-03-04T05:19:08.113Z,15.38
2023-03-04T05:21:34.549Z,15.05
2023-03-04T05:24:02.106Z,14.50
2023-03-04T05:26:31.656Z,12.88
2023-03-04T05:29:04.653Z,14.63
2023-03-04T05:31:31.341Z,14.57
2023-03-04T05:33:57.932Z,14.05
2023-03-04T05:36:37.108Z,14.40
2023-03-04T05:39:03.742Z,14.18
2023-03-04T05:41:33.493Z,13.77
2023-03-04T05:43:59.987Z,15.05
2023-03-04T05:46:26.532Z,14.45
2023-03-04T05:49:01.681Z,13.93
2023-03-04T05:51:35.245Z,14.07
2023-03-04T05:54:04.257Z,15.43
2023-03-04T05:56:33.772Z,13.07
2023-03-04T05:59:00.615Z,14.52
2023-03-04T06:01:27.060Z,14.55
2023-03-04T06:03:53.703Z,13.15
2023-03-04T06:06:20.211Z,14.43
2023-03-04T06:08:46.746Z,14.30
2023-03-04T06:11:13.345Z,13.95
2023-03-04T06:16:15.252Z,15.23
2023-03-04T06:18:41.740Z,15.07
2023-03-04T06:21:08.194Z,16.02
2023-03-04T06:23:37.728Z,15.95
2023-03-04T06:26:07.657Z,14.50
2023-03-04T06:28:34.077Z,14.85
2023-03-04T06:31:00.527Z,14.85
2023-03-04T06:33:28.385Z,14.15
2023-03-04T06:35:55.734Z,16.17
2023-03-04T06:38:49.106Z,15.57
2023-03-04T06:41:21.832Z,14.43
2023-03-04T06:43:48.323Z,14.90
2023-03-04T06:46:14.792Z,13.95
2023-03-04T06:48:41.338Z,14.30
2023-03-04T06:51:13.498Z,14.73
2023-03-04T06:53:44.195Z,14.40
2023-03-04T06:56:16.934Z,14.65
2023-03-04T06:58:44.101Z,14.48
2023-03-04T07:01:21.392Z,13.43
2023-03-04T07:03:52.601Z,14.63
2023-03-04T07:06:21.365Z,15.18
2023-03-04T07:08:47.922Z,15.52
2023-03-04T07:11:14.750Z,14.75
2023-03-04T07:13:44.567Z,15.38
2023-03-04T07:16:15.806Z,15.88
2023-03-04T07:18:42.267Z,15.20
2023-03-04T07:21:08.714Z,15.50
2023-03-04T07:23:35.310Z,14.82
2023-03-04T07:26:05.220Z,13.73
2023-03-04T07:28:39.006Z,16.17
2023-03-04T07:31:22.647Z,16.35
2023-03-04T07:33:49.594Z,17.02
2023-03-04T07:36:16.048Z,16.08
2023-03-04T07:39:02.271Z,16.65
2023-03-04T07:41:28.962Z,16.08
2023-03-04T07:44:00.535Z,15.55
2023-03-04T07:46:27.192Z,16.58
2023-03-04T07:48:54.975Z,15.90
2023-03-04T07:51:23.154Z,16.67
2023-03-04T07:53:57.996Z,17.40
2023-03-04T07:59:28.270Z,16.38
2023-03-04T08:02:06.569Z,17.27
2023-03-04T08:04:33.213Z,17.70
2023-03-04T08:06:59.761Z,16.85
2023-03-04T08:09:26.306Z,16.20
2023-03-04T08:11:52.768Z,16.90
2023-03-04T08:14:25.413Z,17.10
2023-03-04T08:17:01.806Z,17.45
2023-03-04T08:22:03.463Z,17.88
2023-03-04T08:24:29.915Z,16.88
2023-03-04T08:26:56.451Z,16.23
2023-03-04T08:29:26.324Z,16.67
2023-03-04T08:31:53.156Z,17.23
2023-03-04T08:34:28.636Z,15.80
2023-03-04T08:36:55.290Z,16.77
2023-03-04T08:39:22.469Z,17.65
2023-03-04T08:41:59.941Z,16.52
2023-03-04T08:44:26.869Z,16.52
2023-03-04T08:46:59.163Z,17.02
2023-03-04T08:49:26.252Z,18.10
2023-03-04T08:51:55.679Z,18.15
2023-03-04T08:54:26.292Z,17.75
2023-03-04T08:56:53.012Z,18.25
2023-03-04T09:01:56.328Z,17.33
2023-03-04T09:04:22.828Z,17.33
2023-03-04T09:06:49.282Z,18.92
2023-03-04T09:09:15.801Z,17.33
2023-03-04T09:11:42.227Z,17.60
2023-03-04T09:14:08.668Z,18.65
2023-03-04T09:16:35.135Z,17.15
2023-03-04T09:19:05.595Z,17.83
2023-03-04T09:21:31.996Z,17.20
2023-03-04T09:23:58.439Z,17.38
2023-03-04T09:26:26.357Z,16.80
2023-03-04T09:28:54.051Z,16.85
2023-03-04T09:31:21.425Z,16.73
2023-03-04T09:33:55.623Z,17.13
2023-03-04T09:36:43.827Z,16.83
2023-03-04T09:39:10.287Z,13.93
2023-03-04T09:41:47.219Z,15.23
2023-03-04T09:44:35.675Z,15.35
2023-03-04T09:47:21.197Z,15.65
2023-03-04T09:49:56.537Z,14.43
2023-03-04T09:52:23.058Z,14.20
2023-03-04T09:55:17.325Z,13.23
2023-03-04T09:57:43.754Z,13.53
2023-03-04T10:00:43.632Z,13.02
2023-03-04T10:03:20.241Z,11.60
2023-03-04T10:06:08.723Z,12.43
2023-03-04T10:08:36.365Z,12.93
2023-03-04T10:11:06.660Z,13.80
2023-03-04T10:13:59.650Z,13.30
2023-03-04T10:16:52.525Z,11.88
2023-03-04T10:19:28.294Z,10.75
2023-03-04T10:21:55.392Z,5.35
2023-03-04T10:24:24.110Z,9.90
2023-03-04T10:26:55.933Z,10.38
2023-03-04T10:29:23.904Z,9.15
2023-03-04T10:32:00.492Z,11.23
2023-03-04T10:34:30.309Z,11.77
2023-03-04T10:36:59.791Z,12.38
2023-03-04T10:39:35.859Z,12.02
2023-03-04T10:42:11.644Z,11.60
2023-03-04T10:44:41.442Z,12.10
2023-03-04T10:47:10.382Z,12.70
2023-03-04T10:49:50.763Z,12.85
2023-03-04T10:52:23.240Z,12.70
2023-03-04T10:54:54.707Z,11.55
2023-03-04T10:57:56.888Z,10.80
2023-03-04T11:00:25.540Z,12.55
2023-03-04T11:02:52.119Z,12.15
2023-03-04T11:05:20.679Z,12.88
2023-03-04T11:07:57.089Z,13.05
2023-03-04T11:10:42.629Z,11.55
2023-03-04T11:13:11.840Z,12.88
2023-03-04T11:15:57.999Z,13.00
2023-03-04T11:18:38.799Z,13.20
2023-03-04T11:21:15.385Z,13.55
2023-03-04T11:23:44.239Z,14.57
2023-03-04T11:26:14.698Z,13.65
2023-03-04T11:28:49.846Z,13.98
2023-03-04T11:31:26.463Z,14.48
2023-03-04T11:33:56.056Z,13.55
2023-03-04T11:36:39.658Z,13.05
2023-03-04T11:39:17.280Z,11.98
2023-03-04T11:41:48.407Z,12.35
2023-03-04T11:44:14.861Z,12.05
2023-03-04T11:46:47.494Z,10.82
2023-03-04T11:49:19.972Z,10.20
2023-03-04T11:51:58.524Z,11.02
2023-03-04T11:54:37.130Z,12.98
2023-03-04T11:57:07.790Z,12.50
2023-03-04T11:59:54.518Z,13.38
2023-03-04T12:02:24.580Z,11.50
2023-03-04T12:07:50.120Z,10.55
2023-03-04T12:10:43.217Z,11.05
2023-03-04T12:13:12.485Z,10.95
2023-03-04T12:16:04.793Z,11.35
2023-03-04T12:18:34.062Z,10.35
2023-03-04T12:21:06.329Z,11.98
2023-03-04T12:23:35.134Z,10.45
2023-03-04T12:28:53.636Z,11.32
2023-03-04T12:31:38.421Z,11.80
2023-03-04T12:34:17.219Z,12.35
2023-03-04T12:36:56.150Z,11.13
2023-03-04T12:39:25.351Z,11.27
2023-03-04T12:41:57.741Z,10.45
2023-03-04T12:45:09.673Z,10.93
2023-03-04T12:47:42.468Z,9.13
2023-03-04T12:50:21.744Z,9.13
2023-03-04T12:52:56.461Z,9.02
2023-03-04T12:55:38.778Z,10.15
2023-03-04T13:01:07.678Z,10.30
2023-03-04T13:04:03.293Z,12.85
2023-03-04T13:06:35.707Z,11.55
2023-03-04T13:09:28.019Z,10.45
2023-03-04T13:12:22.522Z,9.57
2023-03-04T13:15:23.720Z,10.15
2023-03-04T13:17:53.605Z,9.32
2023-03-04T13:20:41.704Z,9.05
2023-03-04T13:23:35.262Z,8.85
2023-03-04T13:26:01.644Z,8.67
2023-03-04T13:28:28.085Z,8.88
2023-03-04T13:30:54.557Z,8.52
2023-03-04T13:33:21.004Z,8.85
2023-03-04T13:35:47.516Z,11.95
2023-03-04T13:38:29.343Z,10.40
2023-03-04T13:41:17.532Z,10.27
2023-03-04T13:43:48.197Z,11.95
2023-03-04T13:46:20.886Z,10.30
2023-03-04T13:48:53.526Z,10.57
2023-03-04T13:51:30.342Z,10.23
2023-03-04T13:53:59.963Z,9.40
2023-03-04T13:56:45.087Z,9.38
2023-03-04T13:59:15.146Z,9.27
2023-03-04T14:01:41.602Z,8.52
2023-03-04T14:04:34.763Z,9.50
2023-03-04T14:07:08.832Z,9.23
2023-03-04T14:09:35.539Z,7.75
2023-03-04T14:12:13.062Z,6.95
2023-03-04T14:17:31.332Z,8.32
2023-03-04T14:20:21.389Z,7.95
2023-03-04T14:22:50.474Z,6.38
2023-03-04T14:33:35.008Z,7.30
2023-03-04T14:36:10.857Z,6.70
2023-03-04T14:40:15.463Z,5.40
2023-03-04T14:41:51.422Z,8.43
2023-03-04T14:44:48.812Z,7.70
2023-03-04T14:47:59.205Z,9.35
2023-03-04T14:50:46.290Z,7.38
2023-03-04T14:53:17.006Z,8.18
2023-03-04T14:56:03.236Z,8.80
2023-03-04T14:59:14.455Z,8.85
2023-03-04T15:01:57.077Z,7.70
2023-03-04T15:07:25.568Z,7.82
2023-03-04T15:10:12.223Z,9.02
2023-03-04T15:12:38.734Z,7.78
2023-03-04T15:15:26.652Z,8.30
2023-03-04T15:18:11.808Z,9.60
2023-03-04T15:20:55.649Z,9.65
2023-03-04T15:23:40.937Z,10.20
2023-03-04T15:26:17.975Z,8.40
2023-03-04T15:28:57.549Z,8.85
2023-03-04T15:34:39.688Z,9.13
2023-03-04T15:37:22.925Z,7.45
2023-03-04T15:39:52.702Z,8.50
2023-03-04T15:42:19.368Z,9.20
2023-03-04T15:45:00.369Z,9.18
2023-03-04T15:47:26.920Z,9.73
2023-03-04T15:49:54.639Z,9.40
2023-03-04T15:52:21.955Z,8.93
2023-03-04T15:54:55.598Z,8.32
2023-03-04T15:57:23.896Z,8.05
2023-03-04T15:59:50.619Z,8.57
2023-03-04T16:02:20.632Z,7.78
2023-03-04T16:04:47.090Z,8.50
2023-03-04T16:07:18.880Z,8.77
2023-03-04T16:09:45.673Z,7.47
2023-03-04T16:15:20.062Z,9.02
2023-03-04T16:17:53.711Z,9.48
2023-03-04T16:20:21.515Z,9.05
2023-03-04T16:22:56.570Z,8.43
2023-03-04T16:25:26.954Z,7.30
2023-03-04T16:27:54.247Z,7.75
2023-03-04T16:30:26.704Z,7.18
2023-03-04T16:32:53.959Z,6.90
2023-03-04T16:35:21.441Z,6.60
2023-03-04T16:37:47.959Z,8.43
2023-03-04T16:40:18.656Z,7.05
2023-03-04T16:42:45.201Z,7.40
2023-03-04T16:45:17.412Z,9.38
2023-03-04T16:47:56.326Z,8.98
2023-03-04T16:50:24.315Z,8.93
2023-03-04T16:52:54.656Z,9.25
2023-03-04T16:55:42.005Z,9.70
2023-03-04T16:58:10.729Z,10.05
2023-03-04T17:00:39.095Z,9.55
2023-03-04T17:03:05.637Z,9.68
2023-03-04T17:05:34.282Z,11.48
2023-03-04T17:08:00.725Z,10.00
2023-03-04T17:10:58.355Z,8.85
2023-03-04T17:13:24.922Z,9.23
2023-03-04T17:15:51.387Z,8.18
2023-03-04T17:18:18.716Z,7.43
2023-03-04T17:20:45.323Z,9.95
2023-03-04T17:23:11.793Z,8.70
2023-03-04T17:25:38.266Z,9.23
2023-03-04T17:28:06.704Z,8.57
2023-03-04T17:30:38.292Z,9.63
2023-03-04T17:33:05.972Z,8.85
2023-03-04T17:35:54.397Z,9.93
2023-03-04T17:38:27.526Z,8.50
2023-03-04T17:40:54.690Z,9.52
2023-03-04T17:43:21.148Z,9.05
2023-03-04T17:45:47.687Z,9.73
2023-03-04T17:48:14.135Z,11.07
2023-03-04T17:50:47.696Z,11.75
2023-03-04T17:53:14.132Z,12.05
2023-03-04T17:58:38.825Z,12.43
2023-03-04T18:01:23.466Z,11.80
2023-03-04T18:03:53.237Z,10.57
2023-03-04T18:06:19.981Z,10.07
2023-03-04T18:08:46.447Z,10.75
2023-03-04T18:11:12.907Z,10.60
2023-03-04T18:14:07.721Z,9.75
2023-03-04T18:16:46.100Z,11.00
2023-03-04T18:19:12.592Z,11.10
2023-03-04T18:21:39.155Z,10.02
2023-03-04T18:24:16.746Z,9.75
2023-03-04T18:26:46.011Z,8.98
2023-03-04T18:29:14.826Z,9.43
2023-03-04T18:32:07.825Z,8.82
2023-03-04T18:34:39.024Z,9.02
2023-03-04T18:37:08.806Z,8.80
2023-03-04T18:39:41.516Z,8.05
2023-03-04T18:44:43.927Z,9.48
2023-03-04T18:47:10.641Z,9.63
2023-03-04T18:49:42.762Z,9.55
2023-03-04T18:52:12.459Z,8.80
2023-03-04T18:54:38.988Z,9.63
2023-03-04T18:57:12.773Z,9.68
2023-03-04T18:59:59.310Z,10.35
2023-03-04T19:02:32.155Z,8.63
2023-03-04T19:05:01.848Z,8.90
2023-03-04T19:07:28.301Z,9.50
2023-03-04T19:09:55.758Z,9.13
2023-03-04T19:12:22.191Z,8.98
2023-03-04T19:14:51.880Z,16.80
2023-03-04T19:17:18.597Z,27.48
2023-03-04T19:19:45.353Z,29.05
2023-03-04T19:22:26.777Z,28.00
2023-03-04T19:24:53.571Z,27.30
2023-03-04T19:27:29.773Z,25.77
2023-03-04T19:29:57.852Z,26.33
2023-03-04T19:34:56.772Z,24.98
2023-03-04T19:37:23.258Z,19.98
2023-03-04T19:39:49.965Z,19.40
2023-03-04T19:42:16.820Z,15.55
2023-03-04T19:44:46.423Z,14.90
2023-03-04T19:47:15.969Z,13.05
2023-03-04T19:49:42.462Z,11.70
2023-03-04T19:52:08.863Z,12.23
2023-03-04T19:54:42.836Z,11.07
2023-03-04T19:57:09.269Z,11.25
2023-03-04T19:59:35.764Z,10.30
2023-03-04T20:02:02.394Z,10.35
2023-03-04T20:04:34.871Z,9.73
2023-03-04T20:07:01.322Z,9.98
2023-03-04T20:09:27.929Z,9.15
2023-03-04T20:11:58.812Z,9.00
2023-03-04T20:14:28.567Z,10.73
2023-03-04T20:17:01.875Z,9.25
2023-03-04T20:19:35.882Z,8.35
2023-03-04T20:22:09.580Z,8.23
2023-03-04T20:24:42.188Z,10.43
2023-03-04T20:27:08.692Z,11.15
2023-03-04T20:29:35.146Z,10.30
2023-03-04T20:32:02.909Z,9.05
2023-03-04T20:34:29.401Z,9.38
2023-03-04T20:37:00.070Z,8.90
2023-03-04T20:39:35.954Z,8.90
2023-03-04T20:42:02.377Z,9.77
2023-03-04T20:44:30.938Z,9.25
2023-03-04T20:47:00.532Z,9.65
2023-03-04T20:49:45.308Z,9.80
2023-03-04T20:52:11.838Z,10.27
2023-03-04T20:59:44.035Z,9.23
2023-03-04T21:02:14.888Z,9.88
2023-03-04T21:04:44.629Z,8.43
2023-03-04T21:07:11.909Z,10.73
2023-03-04T21:09:38.329Z,11.02
2023-03-04T21:12:08.910Z,10.68
2023-03-04T21:14:35.467Z,10.25
2023-03-04T21:17:03.930Z,9.98
2023-03-04T21:19:32.912Z,9.77
2023-03-04T21:22:00.678Z,11.65
2023-03-04T21:24:34.009Z,9.77
2023-03-04T21:27:00.774Z,9.15
2023-03-04T21:29:30.583Z,9.65
2023-03-04T21:32:09.756Z,9.30
2023-03-04T21:34:47.487Z,8.20
2023-03-04T21:37:14.447Z,8.00
2023-03-04T21:39:40.917Z,8.13
2023-03-04T21:42:07.352Z,8.13
2023-03-04T21:44:48.575Z,8.95
2023-03-04T21:47:16.379Z,8.07
2023-03-04T21:49:42.796Z,7.32
2023-03-04T21:52:09.950Z,7.82
2023-03-04T21:54:36.409Z,7.95
2023-03-04T21:57:11.136Z,8.10
2023-03-04T22:02:03.996Z,7.28
2023-03-04T22:04:30.930Z,7.82
2023-03-04T22:06:57.585Z,7.28
2023-03-04T22:09:24.082Z,6.72
2023-03-04T22:11:50.574Z,7.90
2023-03-04T22:14:18.515Z,8.38
2023-03-04T22:16:54.629Z,7.55
2023-03-04T22:19:28.988Z,7.60
2023-03-04T22:21:55.969Z,7.43
2023-03-04T22:24:22.557Z,7.93
2023-03-04T22:26:49.067Z,7.47
2023-03-04T22:29:15.983Z,7.63
2023-03-04T22:31:46.208Z,6.20
2023-03-04T22:34:13.648Z,6.95
2023-03-04T22:36:42.684Z,6.82
2023-03-04T22:39:10.691Z,6.97
2023-03-04T22:41:59.449Z,6.45
2023-03-04T22:44:32.026Z,7.18
2023-03-04T22:49:53.118Z,7.07
2023-03-04T22:52:19.597Z,6.68
2023-03-04T22:54:52.525Z,7.35
2023-03-04T22:57:18.945Z,6.82
2023-03-04T23:02:25.588Z,6.47
2023-03-04T23:04:51.975Z,5.53
2023-03-04T23:07:25.980Z,6.60
2023-03-04T23:09:52.400Z,6.60
2023-03-04T23:12:18.862Z,6.68
2023-03-04T23:14:45.365Z,7.75
2023-03-04T23:17:14.963Z,8.82
2023-03-04T23:19:41.390Z,7.10
2023-03-04T23:22:07.945Z,7.57
2023-03-04T23:24:54.998Z,7.20
2023-03-04T23:27:30.326Z,8.90
2023-03-04T23:30:08.990Z,7.50
2023-03-04T23:32:35.451Z,7.88
2023-03-04T23:35:01.962Z,6.80
2023-03-04T23:37:31.593Z,7.32
2023-03-04T23:40:03.981Z,7.30
2023-03-04T23:42:42.080Z,6.78
2023-03-04T23:47:59.396Z,7.60
2023-03-04T23:53:06.044Z,7.30
2023-03-04T23:55:32.492Z,7.30
2023-03-04T23:57:58.929Z,8.05
